createdAt,value
2022-08-17T00:07:25.781Z,65.28
2022-08-17T00:17:32.985Z,65.11
2022-08-17T00:27:40.371Z,65.67
2022-08-17T00:37:47.148Z,65.93
2022-08-17T00:49:26.216Z,65.78
2022-08-17T00:59:31.990Z,66.02
2022-08-17T01:09:38.953Z,66.10
2022-08-17T01:19:45.869Z,66.08
2022-08-17T01:29:53.231Z,66.40
2022-08-17T01:40:00.510Z,66.36
2022-08-17T01:50:08.077Z,66.31
2022-08-17T02:00:14.895Z,66.66
2022-08-17T02:10:22.126Z,66.55
2022-08-17T02:20:41.985Z,66.67
2022-08-17T02:31:01.105Z,67.06
2022-08-17T02:40:53.373Z,66.97
2022-08-17T02:51:00.893Z,66.84
2022-08-17T03:01:08.197Z,66.60
2022-08-17T03:11:15.569Z,66.36
2022-08-17T03:21:22.676Z,66.45
2022-08-17T03:31:29.558Z,66.53
2022-08-17T03:41:36.619Z,66.62
2022-08-17T03:51:43.909Z,66.65
2022-08-17T04:01:51.398Z,66.72
2022-08-17T04:12:02.358Z,67.16
2022-08-17T04:22:10.889Z,67.33
2022-08-17T04:33:05.526Z,67.03
2022-08-17T04:42:35.058Z,67.17
2022-08-17T04:52:43.703Z,67.56
2022-08-17T05:02:51.138Z,67.62
2022-08-17T05:12:58.605Z,67.66
2022-08-17T05:23:05.957Z,67.67
2022-08-17T05:33:13.399Z,67.50
2022-08-17T05:43:20.865Z,67.30
2022-08-17T05:53:28.024Z,68.01
2022-08-17T06:03:34.752Z,67.84
2022-08-17T06:13:42.265Z,68.12
2022-08-17T06:23:49.440Z,68.32
2022-08-17T06:33:56.809Z,68.59
2022-08-17T06:44:03.895Z,68.25
2022-08-17T06:54:11.157Z,67.58
2022-08-17T07:04:18.532Z,67.48
2022-08-17T07:14:25.713Z,67.44
2022-08-17T07:24:32.626Z,67.43
2022-08-17T07:34:39.226Z,67.21
2022-08-17T07:44:45.831Z,67.02
2022-08-17T07:54:52.734Z,67.39
2022-08-17T08:05:01.088Z,66.96
2022-08-17T08:15:08.782Z,66.56
2022-08-17T08:25:15.681Z,66.56
2022-08-17T08:35:22.945Z,66.51
2022-08-17T08:45:29.676Z,66.58
2022-08-17T08:55:36.063Z,65.48
2022-08-17T09:05:43.237Z,64.85
2022-08-17T09:15:50.608Z,66.41
2022-08-17T09:25:57.147Z,66.29
2022-08-17T09:36:03.464Z,67.14
2022-08-17T09:46:09.828Z,66.72
2022-08-17T09:56:16.277Z,65.45
2022-08-17T10:06:24.285Z,65.06
2022-08-17T10:16:30.525Z,65.39
2022-08-17T10:26:55.948Z,64.74
2022-08-17T10:36:48.679Z,64.25
2022-08-17T10:46:54.860Z,63.71
2022-08-17T10:57:01.022Z,62.44
2022-08-17T11:07:08.757Z,60.78
2022-08-17T11:17:16.691Z,59.28
2022-08-17T11:27:25.373Z,57.87
2022-08-17T11:37:32.145Z,57.36
2022-08-17T11:47:38.528Z,56.82
2022-08-17T11:57:45.236Z,57.03
2022-08-17T12:07:51.738Z,57.44
2022-08-17T12:17:58.397Z,56.76
2022-08-17T12:28:07.614Z,56.31
2022-08-17T12:38:26.792Z,56.31
2022-08-17T12:48:26.019Z,56.06
2022-08-17T12:58:31.941Z,55.68
2022-08-17T13:08:39.971Z,55.81
2022-08-17T13:18:46.370Z,56.16
2022-08-17T13:28:52.624Z,56.44
2022-08-17T13:38:59.226Z,57.34
2022-08-17T13:49:05.139Z,58.60
2022-08-17T13:59:14.265Z,59.53
2022-08-17T14:09:19.705Z,60.34
2022-08-17T14:19:28.501Z,60.23
2022-08-17T14:29:34.332Z,60.40
2022-08-17T14:39:41.270Z,61.03
2022-08-17T14:49:47.740Z,61.18
2022-08-17T14:59:55.164Z,61.68
2022-08-17T15:10:01.759Z,61.81
2022-08-17T15:20:14.149Z,61.88
2022-08-17T15:30:19.793Z,62.38
2022-08-17T15:40:26.175Z,62.17
2022-08-17T15:50:32.524Z,62.27
2022-08-17T16:00:49.393Z,62.75
2022-08-17T16:10:49.734Z,62.69
2022-08-17T16:20:56.134Z,62.72
2022-08-17T16:31:02.256Z,63.04
2022-08-17T16:41:08.717Z,63.07
2022-08-17T16:51:15.100Z,63.29
2022-08-17T17:01:21.213Z,63.52
2022-08-17T17:11:27.645Z,64.16
2022-08-17T17:21:33.786Z,64.24
2022-08-17T17:31:40.178Z,64.25
2022-08-17T17:41:46.233Z,64.21
2022-08-17T17:52:03.568Z,64.30
2022-08-17T18:02:03.701Z,64.40
2022-08-17T18:12:10.347Z,64.26
2022-08-17T18:22:18.799Z,64.51
2022-08-17T18:32:24.880Z,64.51
2022-08-17T18:42:31.307Z,64.54
2022-08-17T18:52:37.444Z,65.56
2022-08-17T19:02:45.998Z,65.59
2022-08-17T19:12:52.090Z,66.68
2022-08-17T19:22:59.787Z,65.48
2022-08-17T19:33:05.739Z,65.90
2022-08-17T19:43:14.375Z,65.23
2022-08-17T19:53:21.749Z,64.00
2022-08-17T20:03:29.673Z,63.83
2022-08-17T20:13:35.394Z,63.78
2022-08-17T20:23:42.688Z,63.46
2022-08-17T20:33:50.128Z,63.61
2022-08-17T20:43:58.290Z,63.47
2022-08-17T20:54:04.661Z,62.71
2022-08-17T21:04:13.992Z,61.86
2022-08-17T21:14:21.038Z,62.24
2022-08-17T21:24:28.173Z,62.57
2022-08-17T21:34:35.316Z,62.58
2022-08-17T21:44:42.609Z,62.89
2022-08-17T21:54:49.729Z,63.11
2022-08-17T22:04:57.115Z,63.32
2022-08-17T22:15:04.514Z,63.73
2022-08-17T22:25:12.029Z,63.92
2022-08-17T22:35:19.616Z,64.42
2022-08-17T22:45:27.045Z,64.61
2022-08-17T22:55:34.385Z,64.62
2022-08-17T23:05:41.724Z,65.34
2022-08-17T23:15:49.053Z,65.68
2022-08-17T23:26:03.150Z,65.46
2022-08-17T23:36:10.658Z,65.79
2022-08-17T23:46:17.963Z,65.84
2022-08-17T23:56:25.834Z,65.89
